Time;durP1;ratioP1;P1;durP2;ratioP2;P2;SDS_P1;SDS_P2;PMS_P1;PMS_P2;Temp;Humidity;BMP_temperature;BMP_pressure;BME280_temperature;BME280_humidity;BME280_pressure;Samples;Min_cycle;Max_cycle;Signal;HPM_P1;HPM_P2
2023/03/09 00:00:17;;;;;;;0.82;0.70;;;22.00;46.60;;;;;;4984322;28;20035;-65
2023/03/09 00:02:42;;;;;;;2.63;0.85;;;22.00;46.60;;;;;;4985479;28;20027;-65
2023/03/09 00:05:11;;;;;;;2.00;0.80;;;22.00;46.60;;;;;;4985674;28;20039;-65
2023/03/09 00:07:37;;;;;;;1.90;0.90;;;21.90;46.50;;;;;;4984832;28;20125;-63
2023/03/09 00:10:03;;;;;;;2.53;0.88;;;22.00;46.60;;;;;;4990134;28;20118;-66
2023/03/09 00:12:29;;;;;;;2.05;0.90;;;21.90;46.50;;;;;;4985602;28;20467;-66
2023/03/09 00:14:55;;;;;;;1.65;0.80;;;21.90;46.50;;;;;;4984491;28;20454;-66
2023/03/09 00:17:21;;;;;;;1.75;0.70;;;21.90;46.60;;;;;;4984257;28;20041;-66
2023/03/09 00:19:47;;;;;;;2.25;0.90;;;21.90;46.60;;;;;;4985571;28;20446;-66
2023/03/09 00:22:12;;;;;;;1.92;0.80;;;21.90;46.60;;;;;;4984812;28;20038;-66
2023/03/09 00:24:46;;;;;;;1.50;0.68;;;21.90;46.60;;;;;;4981517;28;20024;-66
2023/03/09 00:27:12;;;;;;;1.45;0.70;;;21.90;46.60;;;;;;4984045;28;20512;-66
2023/03/09 00:29:38;;;;;;;1.35;0.70;;;21.80;46.60;;;;;;4982037;28;20042;-66
2023/03/09 00:32:04;;;;;;;1.50;0.70;;;21.80;46.60;;;;;;4982729;28;20026;-66
2023/03/09 00:34:29;;;;;;;1.27;0.70;;;21.80;46.60;;;;;;4984446;28;20038;-66
2023/03/09 00:36:55;;;;;;;1.45;0.73;;;21.80;46.60;;;;;;4982918;28;20038;-67
2023/03/09 00:39:21;;;;;;;0.82;0.60;;;21.80;46.60;;;;;;4984283;28;20164;-66
2023/03/09 00:41:47;;;;;;;1.38;0.60;;;21.80;46.60;;;;;;4986286;28;20101;-67
2023/03/09 00:44:14;;;;;;;2.03;0.75;;;21.80;46.50;;;;;;4982014;28;20022;-67
2023/03/09 00:46:40;;;;;;;1.08;0.70;;;21.80;46.70;;;;;;4983000;28;20070;-67
2023/03/09 00:49:06;;;;;;;1.00;0.70;;;21.80;46.60;;;;;;4995013;28;20030;-67
2023/03/09 00:51:33;;;;;;;0.70;0.50;;;21.70;46.50;;;;;;4985010;28;20076;-66
2023/03/09 00:53:59;;;;;;;1.40;0.70;;;21.70;46.50;;;;;;4986125;28;20030;-67
2023/03/09 00:56:26;;;;;;;0.93;0.63;;;21.70;46.60;;;;;;4988720;28;20076;-66
2023/03/09 00:58:53;;;;;;;1.02;0.65;;;21.70;46.50;;;;;;4981798;28;20033;-67
2023/03/09 01:01:19;;;;;;;0.95;0.60;;;21.70;46.60;;;;;;4983277;28;20057;-66
2023/03/09 01:03:45;;;;;;;1.25;0.77;;;21.70;47.10;;;;;;4979723;28;20498;-68
2023/03/09 01:06:12;;;;;;;1.33;0.75;;;21.70;46.60;;;;;;4984101;28;20098;-67
2023/03/09 01:08:38;;;;;;;1.48;0.63;;;21.70;46.60;;;;;;4984539;28;20034;-67
2023/03/09 01:11:09;;;;;;;1.23;0.70;;;21.70;46.60;;;;;;4984249;28;20516;-67
2023/03/09 01:13:35;;;;;;;1.15;0.52;;;21.70;46.70;;;;;;4982561;28;20075;-67
2023/03/09 01:16:01;;;;;;;0.60;0.55;;;21.70;46.50;;;;;;4983539;28;20045;-67
2023/03/09 01:18:27;;;;;;;0.93;0.60;;;21.70;46.60;;;;;;4983892;28;20034;-67
2023/03/09 01:20:52;;;;;;;1.17;0.60;;;21.60;46.50;;;;;;4984982;28;20394;-67
2023/03/09 01:23:18;;;;;;;2.05;0.75;;;21.60;46.50;;;;;;4985235;28;20502;-67
2023/03/09 01:25:44;;;;;;;1.65;0.70;;;21.60;46.40;;;;;;4982562;28;20042;-67
2023/03/09 01:28:10;;;;;;;1.20;0.80;;;21.60;46.50;;;;;;4982254;28;20031;-67
2023/03/09 01:30:36;;;;;;;1.45;0.88;;;21.60;46.60;;;;;;4980335;28;20445;-66
2023/03/09 01:33:02;;;;;;;1.02;0.60;;;21.60;46.50;;;;;;4981763;28;20026;-64
2023/03/09 01:35:27;;;;;;;1.13;0.68;;;21.60;46.50;;;;;;4984256;28;20410;-65
2023/03/09 01:37:53;;;;;;;0.93;0.60;;;21.60;46.50;;;;;;4981823;28;20444;-65
2023/03/09 01:40:22;;;;;;;0.93;0.55;;;21.60;46.60;;;;;;4984023;28;20577;-65
2023/03/09 01:42:59;;;;;;;0.80;0.50;;;21.60;46.60;;;;;;4981026;28;20449;-65
2023/03/09 01:45:25;;;;;;;1.15;0.60;;;21.50;46.50;;;;;;4981810;28;20030;-65
2023/03/09 01:47:51;;;;;;;1.30;0.60;;;21.60;46.60;;;;;;4984116;28;20030;-65
2023/03/09 01:50:25;;;;;;;0.90;0.52;;;21.60;46.70;;;;;;4984999;28;20029;-65
2023/03/09 01:52:55;;;;;;;1.60;0.60;;;21.50;46.70;;;;;;4983347;28;20034;-65
2023/03/09 01:55:31;;;;;;;1.15;0.70;;;21.50;46.70;;;;;;4997061;28;20031;-65
2023/03/09 01:58:02;;;;;;;0.90;0.52;;;21.50;46.70;;;;;;4985237;28;20501;-66
2023/03/09 02:00:29;;;;;;;0.73;0.55;;;21.50;46.70;;;;;;4981380;28;20035;-66
2023/03/09 02:03:04;;;;;;;1.08;0.60;;;21.50;46.70;;;;;;4985685;28;20100;-65
2023/03/09 02:05:33;;;;;;;1.10;0.60;;;21.50;46.70;;;;;;4986629;28;20482;-65
2023/03/09 02:08:00;;;;;;;1.23;0.65;;;21.50;46.70;;;;;;4984195;28;20031;-65
2023/03/09 02:10:30;;;;;;;0.43;0.40;;;21.50;46.70;;;;;;4982670;28;20028;-65
2023/03/09 02:13:01;;;;;;;0.90;0.50;;;21.50;46.80;;;;;;4998674;28;20039;-65
2023/03/09 02:15:27;;;;;;;0.52;0.50;;;21.50;46.80;;;;;;4979824;28;20476;-65
2023/03/09 02:17:53;;;;;;;0.90;0.50;;;21.50;46.80;;;;;;4981248;28;20109;-66
2023/03/09 02:20:50;;;;;;;1.38;0.50;;;21.50;46.80;;;;;;4985509;28;20096;-66
2023/03/09 02:23:46;;;;;;;0.82;0.55;;;21.50;46.90;;;;;;4981811;28;20106;-66
2023/03/09 02:26:26;;;;;;;0.90;0.57;;;21.40;46.80;;;;;;4967269;28;20046;-65
2023/03/09 02:28:51;;;;;;;1.10;0.60;;;21.40;46.90;;;;;;4995150;28;20033;-66
2023/03/09 02:31:19;;;;;;;0.88;0.50;;;21.40;46.90;;;;;;4982126;28;20042;-66
2023/03/09 02:33:45;;;;;;;0.93;0.50;;;21.40;46.90;;;;;;4978818;28;20467;-66
2023/03/09 02:36:10;;;;;;;0.77;0.50;;;21.40;46.90;;;;;;4979722;28;20113;-65
2023/03/09 02:38:36;;;;;;;0.63;0.40;;;21.40;47.00;;;;;;4982064;28;20042;-65
2023/03/09 02:41:04;;;;;;;1.15;0.70;;;21.40;47.00;;;;;;4987948;28;20027;-65
2023/03/09 02:43:36;;;;;;;1.20;0.47;;;21.40;47.00;;;;;;4984284;28;20439;-65
2023/03/09 02:46:02;;;;;;;0.98;0.60;;;21.40;47.00;;;;;;4981651;28;20030;-65
2023/03/09 02:48:28;;;;;;;0.77;0.50;;;21.40;47.00;;;;;;4983677;28;20198;-65
2023/03/09 02:50:53;;;;;;;0.47;0.40;;;21.40;47.00;;;;;;4980537;28;20026;-65
2023/03/09 02:53:19;;;;;;;0.50;0.50;;;21.40;47.00;;;;;;4981906;28;20421;-65
2023/03/09 02:55:45;;;;;;;0.95;0.57;;;21.30;47.00;;;;;;4985272;28;20022;-65
2023/03/09 02:58:10;;;;;;;0.98;0.70;;;21.30;47.00;;;;;;4986751;28;20034;-65
2023/03/09 03:00:36;;;;;;;0.52;0.50;;;21.30;47.00;;;;;;4986759;28;20378;-66
2023/03/09 03:03:02;;;;;;;0.45;0.40;;;21.40;47.10;;;;;;4999873;28;20031;-66
2023/03/09 03:05:27;;;;;;;0.75;0.50;;;21.30;47.00;;;;;;4985913;28;20501;-65
2023/03/09 03:07:53;;;;;;;0.68;0.43;;;21.30;47.10;;;;;;4985793;28;20446;-66
2023/03/09 03:10:19;;;;;;;0.40;0.40;;;21.30;47.10;;;;;;4985057;28;20398;-65
2023/03/09 03:12:45;;;;;;;1.02;0.60;;;21.30;47.10;;;;;;4984766;28;20033;-65
2023/03/09 03:15:10;;;;;;;0.47;0.47;;;21.30;47.10;;;;;;4983994;28;20027;-65
2023/03/09 03:17:36;;;;;;;0.98;0.50;;;21.30;47.10;;;;;;4985181;28;20042;-65
2023/03/09 03:20:05;;;;;;;0.77;0.40;;;21.30;47.10;;;;;;4986788;28;20435;-65
2023/03/09 03:22:30;;;;;;;1.25;0.50;;;21.30;47.10;;;;;;4985919;28;20426;-65
2023/03/09 03:24:56;;;;;;;0.50;0.40;;;21.30;47.10;;;;;;4981332;28;20014;-65
2023/03/09 03:27:22;;;;;;;0.77;0.40;;;21.30;47.10;;;;;;4991749;28;20038;-65
2023/03/09 03:29:51;;;;;;;1.58;0.50;;;21.30;47.10;;;;;;4987396;28;20039;-65
2023/03/09 03:32:17;;;;;;;0.65;0.52;;;21.30;47.10;;;;;;4985207;28;20030;-65
2023/03/09 03:34:43;;;;;;;0.63;0.40;;;21.30;47.10;;;;;;4984537;28;20475;-65
2023/03/09 03:37:08;;;;;;;0.68;0.50;;;21.30;47.10;;;;;;4986350;28;20501;-65
2023/03/09 03:39:34;;;;;;;0.60;0.50;;;21.30;47.10;;;;;;4985759;28;20364;-65
2023/03/09 03:42:00;;;;;;;0.60;0.40;;;21.20;47.10;;;;;;4985772;28;20101;-65
2023/03/09 03:44:25;;;;;;;0.73;0.50;;;21.20;47.10;;;;;;4984912;28;20466;-66
2023/03/09 03:46:51;;;;;;;0.57;0.40;;;21.20;47.10;;;;;;4980914;28;20034;-65
2023/03/09 03:49:17;;;;;;;0.98;0.50;;;21.20;47.10;;;;;;4984408;28;20022;-65
2023/03/09 03:51:42;;;;;;;0.63;0.50;;;21.20;47.00;;;;;;4989659;28;20125;-66
2023/03/09 03:54:08;;;;;;;0.80;0.50;;;21.20;47.00;;;;;;4984304;28;20039;-67
2023/03/09 03:56:34;;;;;;;0.88;0.40;;;21.20;47.00;;;;;;4983887;28;20132;-65
2023/03/09 03:58:59;;;;;;;0.85;0.50;;;21.20;47.00;;;;;;4984357;28;20174;-66
2023/03/09 04:01:25;;;;;;;1.13;0.60;;;21.20;47.00;;;;;;4984320;28;20035;-66
2023/03/09 04:03:51;;;;;;;0.40;0.40;;;21.20;47.00;;;;;;4982841;28;20474;-66
2023/03/09 04:06:16;;;;;;;0.82;0.40;;;21.20;47.00;;;;;;4985796;28;20033;-66
2023/03/09 04:08:43;;;;;;;1.13;0.30;;;21.20;47.00;;;;;;4986639;28;20037;-66
2023/03/09 04:11:09;;;;;;;0.40;0.40;;;21.20;47.10;;;;;;4981963;28;20477;-66
2023/03/09 04:13:35;;;;;;;0.55;0.43;;;21.20;47.10;;;;;;4985468;28;20034;-66
2023/03/09 04:16:00;;;;;;;0.90;0.50;;;21.20;47.00;;;;;;4983654;28;20453;-66
2023/03/09 04:18:26;;;;;;;0.32;0.32;;;21.20;47.00;;;;;;4984887;28;20038;-66
2023/03/09 04:20:52;;;;;;;0.77;0.50;;;21.10;47.00;;;;;;4987197;28;20022;-66
2023/03/09 04:23:17;;;;;;;0.63;0.50;;;21.10;46.90;;;;;;4986189;28;20612;-65
2023/03/09 04:25:43;;;;;;;0.47;0.43;;;21.10;46.90;;;;;;4983040;28;20068;-66
2023/03/09 04:28:08;;;;;;;0.68;0.40;;;21.10;46.90;;;;;;4986856;28;20426;-65
2023/03/09 04:30:34;;;;;;;0.50;0.40;;;21.10;46.90;;;;;;4984319;28;20102;-66
2023/03/09 04:33:00;;;;;;;0.30;0.30;;;21.10;46.90;;;;;;4984642;28;20064;-65
2023/03/09 04:35:25;;;;;;;0.50;0.50;;;21.10;46.90;;;;;;4981353;28;20031;-66
2023/03/09 04:37:51;;;;;;;0.43;0.40;;;21.10;46.90;;;;;;4985262;28;20101;-66
2023/03/09 04:40:17;;;;;;;0.75;0.40;;;21.10;46.90;;;;;;4982577;28;20014;-66
2023/03/09 04:42:43;;;;;;;0.73;0.40;;;21.10;46.80;;;;;;4983677;28;20073;-66
2023/03/09 04:45:09;;;;;;;0.50;0.47;;;21.10;46.80;;;;;;4982864;28;20176;-66
2023/03/09 04:47:35;;;;;;;0.88;0.40;;;21.10;46.90;;;;;;4983256;28;20068;-67
2023/03/09 04:50:01;;;;;;;0.63;0.50;;;21.10;46.80;;;;;;4983481;28;20054;-66
2023/03/09 04:52:26;;;;;;;0.70;0.50;;;21.10;46.90;;;;;;4983940;28;20156;-66
2023/03/09 04:54:54;;;;;;;0.40;0.40;;;21.10;46.90;;;;;;4979945;28;20399;-66
2023/03/09 04:57:20;;;;;;;0.52;0.40;;;21.10;46.80;;;;;;4982790;28;20479;-65
2023/03/09 04:59:45;;;;;;;0.65;0.43;;;21.10;46.80;;;;;;4979054;28;20188;-66
2023/03/09 05:02:11;;;;;;;0.60;0.40;;;21.00;46.80;;;;;;4982884;28;20069;-65
2023/03/09 05:04:36;;;;;;;0.30;0.30;;;21.00;46.80;;;;;;4984279;28;20479;-66
2023/03/09 05:07:02;;;;;;;0.82;0.57;;;21.00;46.80;;;;;;4985155;28;20030;-65
2023/03/09 05:09:28;;;;;;;0.60;0.40;;;21.00;46.80;;;;;;4982800;28;20037;-65
2023/03/09 05:11:53;;;;;;;0.60;0.50;;;21.00;46.90;;;;;;4984504;28;20030;-66
2023/03/09 05:14:20;;;;;;;0.55;0.50;;;21.00;46.90;;;;;;4998230;28;20110;-66
2023/03/09 05:16:48;;;;;;;0.30;0.30;;;21.00;47.40;;;;;;4980164;28;20038;-66
2023/03/09 05:19:16;;;;;;;0.52;0.40;;;21.00;46.90;;;;;;4981257;28;20023;-66
2023/03/09 05:21:42;;;;;;;0.30;0.28;;;21.00;46.90;;;;;;4985838;28;20033;-66
2023/03/09 05:24:07;;;;;;;0.85;0.30;;;21.00;46.90;;;;;;4983036;28;20185;-66
2023/03/09 05:26:33;;;;;;;0.60;0.45;;;21.00;46.90;;;;;;4982759;28;20466;-66
2023/03/09 05:28:58;;;;;;;0.40;0.40;;;21.00;46.90;;;;;;4983179;28;20054;-66
2023/03/09 05:31:24;;;;;;;0.35;0.35;;;21.00;47.00;;;;;;4982655;28;20030;-66
2023/03/09 05:33:52;;;;;;;0.55;0.40;;;21.00;47.00;;;;;;4986092;28;20031;-66
2023/03/09 05:36:21;;;;;;;0.32;0.30;;;21.00;47.00;;;;;;4979873;28;20122;-66
2023/03/09 05:38:48;;;;;;;0.30;0.30;;;21.00;47.00;;;;;;4981121;28;20521;-66
2023/03/09 05:41:14;;;;;;;0.40;0.38;;;21.00;47.00;;;;;;4982299;28;20034;-66
2023/03/09 05:43:42;;;;;;;0.45;0.40;;;21.00;47.00;;;;;;4988992;28;20026;-65
2023/03/09 05:46:13;;;;;;;0.30;0.30;;;21.00;47.00;;;;;;4996206;28;20039;-66
2023/03/09 05:48:40;;;;;;;0.22;0.22;;;21.00;47.00;;;;;;4981972;28;20117;-65
2023/03/09 05:51:07;;;;;;;0.57;0.43;;;21.00;47.00;;;;;;4982486;28;20049;-66
2023/03/09 05:53:34;;;;;;;0.40;0.35;;;21.00;47.10;;;;;;4981185;28;20385;-66
2023/03/09 05:56:00;;;;;;;0.32;0.32;;;21.00;47.60;;;;;;4988326;28;20030;-66
2023/03/09 05:58:27;;;;;;;0.30;0.30;;;20.90;47.00;;;;;;4981931;28;20468;-66
2023/03/09 06:00:53;;;;;;;0.38;0.30;;;20.90;47.10;;;;;;4982175;28;20023;-66
2023/03/09 06:03:20;;;;;;;0.65;0.30;;;21.00;47.10;;;;;;4980828;28;20022;-66
2023/03/09 06:05:56;;;;;;;0.85;0.40;;;20.90;47.10;;;;;;4982649;28;20031;-66
2023/03/09 06:08:22;;;;;;;0.47;0.40;;;20.90;47.10;;;;;;4981867;28;20030;-66
2023/03/09 06:10:47;;;;;;;0.35;0.30;;;20.90;47.10;;;;;;4982055;28;20110;-66
2023/03/09 06:13:13;;;;;;;0.30;0.30;;;20.90;47.10;;;;;;4983706;28;20031;-66
2023/03/09 06:15:39;;;;;;;0.40;0.40;;;20.90;47.10;;;;;;4981659;28;20035;-67
2023/03/09 06:18:04;;;;;;;0.68;0.40;;;20.90;47.20;;;;;;4981036;28;20088;-66
2023/03/09 06:20:30;;;;;;;0.98;0.50;;;20.90;47.20;;;;;;4983512;28;20036;-66
2023/03/09 06:22:56;;;;;;;0.52;0.38;;;20.90;47.20;;;;;;4983819;28;20354;-66
2023/03/09 06:25:21;;;;;;;0.30;0.30;;;20.90;47.70;;;;;;4982929;28;20041;-66
2023/03/09 06:27:47;;;;;;;0.85;0.50;;;20.90;47.20;;;;;;4983621;28;20033;-66
2023/03/09 06:30:13;;;;;;;0.45;0.40;;;20.90;47.20;;;;;;4992473;28;20042;-65
2023/03/09 06:32:38;;;;;;;1.10;0.45;;;20.90;47.20;;;;;;4985063;28;20037;-66
2023/03/09 06:35:04;;;;;;;0.40;0.30;;;20.90;47.20;;;;;;4983982;28;20018;-65
2023/03/09 06:37:30;;;;;;;0.40;0.30;;;20.90;47.20;;;;;;4987815;28;20022;-66
2023/03/09 06:39:55;;;;;;;0.45;0.30;;;20.90;47.30;;;;;;4992587;28;20486;-66
2023/03/09 06:42:21;;;;;;;0.70;0.52;;;20.90;48.20;;;;;;4987109;28;20026;-66
2023/03/09 06:44:47;;;;;;;0.52;0.40;;;21.00;48.90;;;;;;4992112;28;20037;-66
2023/03/09 06:47:12;;;;;;;0.57;0.40;;;21.20;48.90;;;;;;4983660;28;20026;-66
2023/03/09 06:49:38;;;;;;;0.30;0.25;;;21.30;48.80;;;;;;4986184;28;20104;-66
2023/03/09 06:52:05;;;;;;;0.50;0.30;;;21.40;48.60;;;;;;4988465;28;20039;-66
2023/03/09 06:54:30;;;;;;;0.30;0.30;;;21.30;48.40;;;;;;4991358;28;20101;-66
2023/03/09 06:56:56;;;;;;;0.40;0.32;;;21.30;48.20;;;;;;4986497;28;20027;-66
2023/03/09 06:59:21;;;;;;;0.40;0.40;;;21.40;48.20;;;;;;4984011;28;20085;-66
2023/03/09 07:01:47;;;;;;;0.57;0.40;;;21.40;49.10;;;;;;4988444;28;20034;-65
2023/03/09 07:04:13;;;;;;;0.32;0.32;;;21.60;49.20;;;;;;4983524;28;20030;-66
2023/03/09 07:06:38;;;;;;;0.52;0.30;;;21.70;48.70;;;;;;4985605;28;20376;-65
2023/03/09 07:09:04;;;;;;;0.73;0.50;;;21.70;48.50;;;;;;4988924;28;20093;-66
2023/03/09 07:11:30;;;;;;;0.50;0.32;;;21.80;47.80;;;;;;4989065;28;20027;-66
2023/03/09 07:13:55;;;;;;;1.25;0.50;;;21.70;47.50;;;;;;4987600;28;20030;-66
2023/03/09 07:16:25;;;;;;;0.40;0.40;;;21.70;47.80;;;;;;4994754;28;20091;-65
2023/03/09 07:18:51;;;;;;;1.38;0.40;;;21.70;47.20;;;;;;4992753;28;20069;-66
2023/03/09 07:21:17;;;;;;;0.52;0.32;;;21.70;47.10;;;;;;4986675;28;20498;-66
2023/03/09 07:23:42;;;;;;;0.40;0.40;;;21.80;47.10;;;;;;4993608;28;20058;-66
2023/03/09 07:26:08;;;;;;;1.00;0.52;;;21.80;47.00;;;;;;4989832;28;20042;-66
2023/03/09 07:28:34;;;;;;;0.63;0.30;;;21.80;46.90;;;;;;4984455;28;20027;-66
2023/03/09 07:31:07;;;;;;;1.08;0.40;;;21.80;46.90;;;;;;4985696;28;20209;-65
2023/03/09 07:33:32;;;;;;;0.32;0.30;;;21.80;46.90;;;;;;4983467;28;20605;-65
2023/03/09 07:35:58;;;;;;;0.45;0.30;;;21.80;46.90;;;;;;4991682;28;20109;-66
2023/03/09 07:38:23;;;;;;;0.73;0.40;;;21.90;46.90;;;;;;4983523;28;20482;-66
2023/03/09 07:40:49;;;;;;;0.32;0.30;;;21.90;46.90;;;;;;4985362;28;20205;-66
2023/03/09 07:43:15;;;;;;;0.30;0.30;;;21.90;46.80;;;;;;4984238;28;20054;-65
2023/03/09 07:45:40;;;;;;;0.20;0.20;;;22.00;46.70;;;;;;4984694;28;20031;-66
2023/03/09 07:48:06;;;;;;;0.90;0.40;;;22.00;46.70;;;;;;4984394;28;20030;-66
2023/03/09 07:50:32;;;;;;;0.88;0.30;;;22.00;46.70;;;;;;4985993;28;20035;-65
2023/03/09 07:52:58;;;;;;;1.85;0.47;;;22.00;46.70;;;;;;4990532;28;20089;-66
2023/03/09 07:55:24;;;;;;;0.30;0.30;;;22.00;46.70;;;;;;4988949;28;20100;-65
2023/03/09 07:57:50;;;;;;;0.47;0.40;;;22.00;47.10;;;;;;4983905;28;20030;-66
2023/03/09 08:00:20;;;;;;;0.75;0.45;;;22.10;46.80;;;;;;4989950;28;20038;-65
2023/03/09 08:02:46;;;;;;;0.28;0.28;;;22.10;46.40;;;;;;4985074;28;20546;-66
2023/03/09 08:05:13;;;;;;;1.15;0.40;;;22.10;46.80;;;;;;4984409;28;20113;-66
2023/03/09 08:07:42;;;;;;;0.40;0.40;;;22.10;46.50;;;;;;4985351;28;20066;-65
2023/03/09 08:10:08;;;;;;;0.68;0.35;;;22.10;45.90;;;;;;4980096;28;20914;-65
2023/03/09 08:12:34;;;;;;;1.48;0.43;;;22.10;46.10;;;;;;4987374;28;20490;-65
2023/03/09 08:15:00;;;;;;;0.73;0.40;;;22.10;45.90;;;;;;4987232;28;20054;-65
2023/03/09 08:17:25;;;;;;;0.93;0.50;;;22.10;46.00;;;;;;4983191;28;20104;-65
2023/03/09 08:19:51;;;;;;;0.50;0.50;;;22.10;46.00;;;;;;4983981;28;20398;-65
2023/03/09 08:22:16;;;;;;;1.05;0.43;;;22.10;46.00;;;;;;4982445;28;20027;-65
2023/03/09 08:24:42;;;;;;;0.70;0.40;;;22.10;46.00;;;;;;4990689;28;20113;-65
2023/03/09 08:27:09;;;;;;;0.30;0.30;;;22.00;45.90;;;;;;4984359;28;20039;-66
2023/03/09 08:29:35;;;;;;;0.85;0.50;;;22.00;45.90;;;;;;4985047;28;20545;-66
2023/03/09 08:32:05;;;;;;;0.40;0.30;;;22.10;46.00;;;;;;4983812;28;20109;-65
2023/03/09 08:34:30;;;;;;;0.55;0.30;;;22.10;46.00;;;;;;4998757;28;20121;-66
2023/03/09 08:36:57;;;;;;;0.50;0.40;;;22.00;46.00;;;;;;4983290;28;20113;-66
2023/03/09 08:39:22;;;;;;;0.40;0.40;;;22.00;46.00;;;;;;4989441;28;20497;-65
2023/03/09 08:41:48;;;;;;;1.13;0.40;;;22.00;46.00;;;;;;4982761;28;20068;-65
2023/03/09 08:44:13;;;;;;;0.63;0.40;;;22.00;46.00;;;;;;4989408;28;20018;-66
2023/03/09 08:46:39;;;;;;;0.80;0.50;;;22.00;45.90;;;;;;4984631;28;20041;-66
2023/03/09 08:49:05;;;;;;;0.40;0.40;;;22.00;46.00;;;;;;4983793;28;20469;-66
2023/03/09 08:51:30;;;;;;;0.73;0.32;;;22.00;46.00;;;;;;4980088;28;20039;-66
2023/03/09 08:53:56;;;;;;;0.50;0.40;;;22.00;46.10;;;;;;4980844;28;20062;-65
2023/03/09 08:56:21;;;;;;;0.60;0.40;;;22.00;46.10;;;;;;4981926;28;20027;-65
2023/03/09 08:58:47;;;;;;;0.52;0.35;;;22.00;46.10;;;;;;4983378;28;20046;-65
2023/03/09 09:01:13;;;;;;;0.63;0.47;;;21.90;46.10;;;;;;4983716;28;20518;-66
2023/03/09 09:03:39;;;;;;;1.23;0.40;;;21.90;46.10;;;;;;4984601;28;20109;-65
2023/03/09 09:06:11;;;;;;;0.35;0.30;;;21.90;46.10;;;;;;4987359;28;20514;-65
2023/03/09 09:08:37;;;;;;;0.60;0.30;;;21.90;46.10;;;;;;4983269;28;20026;-65
2023/03/09 09:11:11;;;;;;;0.52;0.40;;;21.90;46.70;;;;;;4989320;28;20026;-66
2023/03/09 09:13:37;;;;;;;0.90;0.40;;;21.80;46.10;;;;;;4984625;28;20031;-66
2023/03/09 09:16:05;;;;;;;0.63;0.40;;;21.80;46.20;;;;;;4980970;28;20046;-66
2023/03/09 09:18:32;;;;;;;0.80;0.50;;;21.80;46.20;;;;;;4982425;28;20027;-65
2023/03/09 09:20:58;;;;;;;0.47;0.40;;;21.80;46.20;;;;;;4986051;28;20033;-66
2023/03/09 09:23:23;;;;;;;0.30;0.30;;;21.80;46.30;;;;;;4986381;28;20022;-65
2023/03/09 09:25:55;;;;;;;1.45;0.40;;;21.80;46.30;;;;;;4982605;28;20042;-66
2023/03/09 09:28:22;;;;;;;0.63;0.40;;;21.80;46.30;;;;;;4979085;28;20027;-66
2023/03/09 09:30:55;;;;;;;0.50;0.40;;;21.80;46.30;;;;;;4981145;28;20548;-65
2023/03/09 09:33:21;;;;;;;0.30;0.30;;;21.80;46.40;;;;;;4981498;28;20051;-66
2023/03/09 09:35:58;;;;;;;0.80;0.35;;;21.80;46.40;;;;;;4983364;28;20034;-66
2023/03/09 09:38:25;;;;;;;0.45;0.30;;;21.80;46.40;;;;;;4984774;28;20022;-65
2023/03/09 09:40:53;;;;;;;0.52;0.32;;;21.70;46.40;;;;;;4983151;28;20457;-66
2023/03/09 09:43:19;;;;;;;0.47;0.30;;;21.70;46.40;;;;;;4984040;28;20030;-66
2023/03/09 09:45:45;;;;;;;0.30;0.30;;;21.70;46.40;;;;;;4983404;28;20026;-66
2023/03/09 09:48:17;;;;;;;0.45;0.30;;;21.70;46.50;;;;;;4980785;28;20033;-66
2023/03/09 09:51:14;;;;;;;0.40;0.40;;;21.70;46.50;;;;;;4984956;28;20034;-65
2023/03/09 09:54:15;;;;;;;0.40;0.30;;;21.70;46.50;;;;;;4982948;28;20076;-66
2023/03/09 09:56:45;;;;;;;0.82;0.40;;;21.70;46.50;;;;;;4982552;28;20030;-65
2023/03/09 09:59:19;;;;;;;0.43;0.32;;;21.70;46.50;;;;;;4981489;28;20398;-65
2023/03/09 10:01:49;;;;;;;0.30;0.30;;;21.70;46.50;;;;;;4983740;28;20054;-65
2023/03/09 10:04:26;;;;;;;0.47;0.40;;;21.70;46.50;;;;;;4979863;28;20608;-65
2023/03/09 10:06:53;;;;;;;0.63;0.40;;;21.70;46.50;;;;;;4983780;28;20438;-65
2023/03/09 10:09:26;;;;;;;0.60;0.40;;;21.70;46.50;;;;;;4981635;28;20049;-66
2023/03/09 10:11:58;;;;;;;0.32;0.32;;;21.60;46.50;;;;;;4981739;28;20027;-65
2023/03/09 10:14:27;;;;;;;0.30;0.30;;;21.60;46.50;;;;;;4982282;28;20031;-65
2023/03/09 10:17:15;;;;;;;0.30;0.30;;;21.60;46.50;;;;;;4984644;28;20031;-65
2023/03/09 10:19:42;;;;;;;1.67;0.40;;;21.60;46.50;;;;;;4976764;28;20061;-65
2023/03/09 10:22:16;;;;;;;0.30;0.30;;;21.60;46.50;;;;;;4982813;28;20038;-65
2023/03/09 10:24:47;;;;;;;0.57;0.43;;;21.60;46.50;;;;;;4983721;28;20057;-66
2023/03/09 10:27:22;;;;;;;0.45;0.30;;;21.60;46.60;;;;;;4980730;28;20140;-66
2023/03/09 10:30:07;;;;;;;0.30;0.30;;;21.60;46.60;;;;;;4997135;28;20212;-65
2023/03/09 10:32:54;;;;;;;0.52;0.45;;;21.60;46.60;;;;;;4982635;28;20034;-66
2023/03/09 10:35:45;;;;;;;0.60;0.40;;;21.60;46.60;;;;;;4984272;28;20034;-65
2023/03/09 10:38:22;;;;;;;0.30;0.30;;;21.60;46.70;;;;;;4985377;28;20066;-66
2023/03/09 10:40:51;;;;;;;0.40;0.40;;;21.60;46.70;;;;;;4996845;28;20058;-65
2023/03/09 10:43:23;;;;;;;0.50;0.40;;;21.60;46.70;;;;;;4998501;28;20033;-65
2023/03/09 10:45:49;;;;;;;0.38;0.30;;;21.50;46.60;;;;;;4980257;28;20050;-65
2023/03/09 10:48:22;;;;;;;0.43;0.40;;;21.50;46.70;;;;;;4983604;28;20022;-66
2023/03/09 10:51:02;;;;;;;0.68;0.47;;;21.50;46.70;;;;;;4981974;28;20022;-65
2023/03/09 10:53:33;;;;;;;0.40;0.40;;;21.50;46.70;;;;;;4979646;28;20372;-66
2023/03/09 10:56:28;;;;;;;0.30;0.30;;;21.50;46.70;;;;;;4981303;28;20975;-65
2023/03/09 10:59:03;;;;;;;0.30;0.20;;;21.50;46.70;;;;;;4979499;28;20062;-65
2023/03/09 11:01:29;;;;;;;0.82;0.60;;;21.50;46.80;;;;;;4980572;28;20018;-65
2023/03/09 11:03:55;;;;;;;0.30;0.30;;;21.50;46.80;;;;;;4978606;28;20077;-65
2023/03/09 11:06:37;;;;;;;0.75;0.30;;;21.50;46.80;;;;;;4980499;28;20437;-65
2023/03/09 11:09:14;;;;;;;0.77;0.60;;;21.50;46.80;;;;;;4981182;28;20106;-65
2023/03/09 11:11:42;;;;;;;0.63;0.40;;;21.50;46.80;;;;;;4979820;28;20081;-65
2023/03/09 11:14:29;;;;;;;0.40;0.40;;;21.50;46.80;;;;;;4981259;28;20037;-65
2023/03/09 11:17:00;;;;;;;0.30;0.30;;;21.50;46.80;;;;;;4985333;28;20490;-65
2023/03/09 11:19:27;;;;;;;0.38;0.38;;;21.50;46.80;;;;;;4988172;28;20453;-65
2023/03/09 11:22:02;;;;;;;0.40;0.28;;;21.50;46.90;;;;;;4984031;28;20031;-65
2023/03/09 11:24:34;;;;;;;0.75;0.40;;;21.50;46.90;;;;;;4983513;28;20029;-65
2023/03/09 11:27:05;;;;;;;0.80;0.50;;;21.50;46.90;;;;;;4984651;28;20157;-66
2023/03/09 11:29:54;;;;;;;0.50;0.40;;;21.50;46.90;;;;;;4987440;28;20029;-65
2023/03/09 11:32:19;;;;;;;0.40;0.40;;;21.50;46.90;;;;;;4987341;28;20042;-65
2023/03/09 11:34:46;;;;;;;0.40;0.40;;;21.50;47.50;;;;;;4984296;28;20085;-65
2023/03/09 11:37:16;;;;;;;0.90;0.40;;;21.40;46.90;;;;;;4985831;28;20129;-65
2023/03/09 11:39:49;;;;;;;0.65;0.40;;;21.40;47.40;;;;;;4986224;28;20386;-66
2023/03/09 11:42:28;;;;;;;0.43;0.30;;;21.40;46.90;;;;;;4985223;28;20504;-65
2023/03/09 11:44:53;;;;;;;0.30;0.30;;;21.50;46.90;;;;;;4986123;28;20024;-66
2023/03/09 11:47:39;;;;;;;0.20;0.20;;;21.50;47.50;;;;;;4984311;28;20133;-65
2023/03/09 11:50:19;;;;;;;0.30;0.30;;;21.40;46.90;;;;;;4983270;28;20462;-66
2023/03/09 11:52:56;;;;;;;0.40;0.30;;;21.40;46.90;;;;;;4984697;28;20066;-65
2023/03/09 11:55:29;;;;;;;1.05;0.45;;;21.50;46.90;;;;;;4984102;28;20101;-65
2023/03/09 11:58:00;;;;;;;0.50;0.40;;;21.50;47.00;;;;;;4984341;28;20189;-66
2023/03/09 12:00:28;;;;;;;0.65;0.43;;;21.40;46.90;;;;;;4981246;28;20406;-65
2023/03/09 12:03:02;;;;;;;0.30;0.30;;;21.40;47.40;;;;;;4984910;28;20142;-65
2023/03/09 12:05:34;;;;;;;0.20;0.20;;;21.40;46.90;;;;;;4985455;28;20038;-65
2023/03/09 12:08:16;;;;;;;0.40;0.38;;;21.40;46.80;;;;;;4986772;28;20022;-65
2023/03/09 12:11:00;;;;;;;0.32;0.32;;;21.40;46.90;;;;;;4985589;28;20406;-65
2023/03/09 12:13:43;;;;;;;0.43;0.40;;;21.40;46.80;;;;;;4982651;28;20097;-66
2023/03/09 12:16:35;;;;;;;0.73;0.40;;;21.40;46.80;;;;;;4984178;28;20478;-65
2023/03/09 12:19:19;;;;;;;0.40;0.30;;;21.40;46.80;;;;;;4982699;28;20062;-65
2023/03/09 12:21:59;;;;;;;0.60;0.50;;;21.40;46.80;;;;;;4983718;28;20477;-66
2023/03/09 12:24:41;;;;;;;0.25;0.25;;;21.40;46.80;;;;;;4999292;28;20037;-65
2023/03/09 12:27:17;;;;;;;0.47;0.40;;;21.40;46.70;;;;;;4983248;28;20069;-65
2023/03/09 12:29:50;;;;;;;0.73;0.50;;;21.40;46.80;;;;;;4986088;28;20038;-65
2023/03/09 12:32:16;;;;;;;0.30;0.30;;;21.40;46.80;;;;;;4986123;28;20482;-65
2023/03/09 12:34:43;;;;;;;0.35;0.32;;;21.40;46.70;;;;;;4980767;28;20053;-66
2023/03/09 12:37:30;;;;;;;0.63;0.50;;;21.50;46.70;;;;;;4982059;28;20620;-66
2023/03/09 12:40:04;;;;;;;0.60;0.40;;;21.40;46.70;;;;;;4985706;28;20015;-66
2023/03/09 12:42:38;;;;;;;0.73;0.50;;;21.40;46.70;;;;;;4981485;28;20053;-66
2023/03/09 12:45:14;;;;;;;0.70;0.40;;;21.40;46.70;;;;;;4983427;28;20510;-65
2023/03/09 12:47:52;;;;;;;1.55;0.77;;;21.40;46.70;;;;;;4982708;28;20423;-66
2023/03/09 12:50:43;;;;;;;0.68;0.43;;;21.40;46.70;;;;;;4982364;28;20033;-66
2023/03/09 12:53:14;;;;;;;0.73;0.50;;;21.50;46.70;;;;;;4981332;28;20034;-66
2023/03/09 12:55:39;;;;;;;1.08;0.50;;;21.40;46.70;;;;;;4983574;28;20029;-66